Aérodrome :
LOGIN :

S'inscrire | Disclaimer

   EN    FR    IT 

 










Légende :    VFR   VFR Marginal   IFR   IFR Intensif   IFR Très Intensif
Visi : 
Plafond : 
>= 8 km
>= 3000ft
5 à 8 km
1000 à 3000 ft
1500m à 5 km
500 à 1000 ft
800 à 1500m
200 à 500 ft
< 800m
< 200 ft
Symboles :   Orages  Brouillard  Fortes neiges  Fortes précipitations  Vent > 20 kt
SIGMETs :   Divers  Orages  Givrage  Turbulence  Onde Orograph.  Cendres Volcan.







- Altitude de l'aérodrome : 935 ft


EBFS - Florennes

DERNIER METAR :
  • 240642Z 22008KT 9999 SCT012 SCT220 08/05 Q1018 GRN GRN

METARs EXPIRÉS :
  • 240633Z 22006KT 9999 FEW038 BKN220 08/05 Q1018 BLU BLU BECMG GRN
  • 240625Z 22006KT 9999 FEW038 BKN220 08/04 Q1018 BLU BLU
  • 240555Z 23007KT 9999 FEW140 BKN220 07/04 Q1018 BLU BLU
  • 240525Z 23008KT 9999 FEW140 BKN220 07/04 Q1018 BLU BLU
  • 240455Z 23007KT 9999 FEW140 BKN220 07/04 Q1018 BLU BLU
  • 240425Z 23008KT 9999 SCT140 SCT220 07/04 Q1018 BLU BLU
  • 240355Z 23009KT 9999 SCT140 SCT230 07/04 Q1018 BLU BLU

TAF TAF EBFS
Valide du 24 à 07h jusqu'au 24 à 16h UTC


240541Z 2407/2416 24010G20KT 9999 SCT100 SCT210
BECMG 2407/2409 SCT010 BKN020
PROB30
TEMPO 2408/2412 7000 -RA
BECMG 2401/2412 BKN020
Pas de NOTAMs connus pour ce terrain.



MET'MAP, la Météo Aéronautique d'un coup d'oeil ! - Copyright ORBIFLY Décembre 2007 - Disclaimer

ORBIFLY MET'MAP TEAM :

Programmation & Développement : Alexandra Zaïnal
Conception & Développement : Baudouin d'Aumeries
Co-Programmation & Développement : Marc-Olivier Méhu
Soutien technique & logistique : Manuel Goepfert

Contact : metmap@orbifly.com




SOURCES & CREDITS :

   NOAA